createdAt,value
2019-01-15T00:01:11.325Z,93703.57
2019-01-15T00:03:40.802Z,93709.21
2019-01-15T00:06:10.238Z,93709.08
2019-01-15T00:08:39.673Z,93727.77
2019-01-15T00:11:09.157Z,93719.23
2019-01-15T00:13:38.976Z,93733.38
2019-01-15T00:16:08.437Z,93735.31
2019-01-15T00:18:37.918Z,93740.63
2019-01-15T00:21:07.383Z,93749.52
2019-01-15T00:23:36.860Z,93749.04
2019-01-15T00:26:06.380Z,93755.16
2019-01-15T00:28:35.930Z,93757.76
2019-01-15T00:31:05.425Z,93762.27
2019-01-15T00:33:34.960Z,93774.02
2019-01-15T00:36:04.625Z,93775.50
2019-01-15T00:38:34.077Z,93784.34
2019-01-15T00:41:03.525Z,93783.05
2019-01-15T00:43:32.994Z,93786.94
2019-01-15T00:46:02.457Z,93787.26
2019-01-15T00:48:31.886Z,93787.74
2019-01-15T00:51:01.361Z,93798.20
2019-01-15T00:53:30.836Z,93786.59
2019-01-15T00:56:00.361Z,93798.05
2019-01-15T00:58:29.867Z,93803.34
2019-01-15T01:00:59.373Z,93798.35
2019-01-15T01:03:28.891Z,93798.52
2019-01-15T01:05:58.388Z,93783.70
2019-01-15T01:08:27.845Z,93794.34
2019-01-15T01:10:57.313Z,93805.75
2019-01-15T01:13:26.771Z,93808.83
2019-01-15T01:15:56.236Z,93798.52
2019-01-15T01:18:25.719Z,93799.17
2019-01-15T01:20:55.183Z,93796.11
2019-01-15T01:23:24.651Z,93793.38
2019-01-15T01:25:54.135Z,93792.72
2019-01-15T01:28:23.608Z,93786.30
2019-01-15T01:30:53.035Z,93791.77
2019-01-15T01:33:22.497Z,93794.02
2019-01-15T01:35:52.033Z,93787.89
2019-01-15T01:38:21.532Z,93793.53
2019-01-15T01:40:51.053Z,93789.36
2019-01-15T01:43:20.564Z,93787.91
2019-01-15T01:45:50.166Z,93785.34
2019-01-15T01:48:19.683Z,93774.37
2019-01-15T01:50:49.213Z,93774.22
2019-01-15T01:53:18.723Z,93777.59
2019-01-15T01:55:48.248Z,93775.00
2019-01-15T01:58:17.750Z,93786.94
2019-01-15T02:00:47.255Z,93779.53
2019-01-15T02:03:18.610Z,93786.61
2019-01-15T02:05:48.066Z,93791.45
2019-01-15T02:08:17.541Z,93801.41
2019-01-15T02:10:47.020Z,93798.52
2019-01-15T02:13:16.495Z,93826.69
2019-01-15T02:15:45.980Z,93817.20
2019-01-15T02:18:15.443Z,93797.56
2019-01-15T02:20:44.936Z,93823.65
2019-01-15T02:23:14.418Z,93819.92
2019-01-15T02:25:43.936Z,93831.38
2019-01-15T02:28:13.439Z,93841.68
2019-01-15T02:30:42.926Z,93837.16
2019-01-15T02:33:12.401Z,93847.27
2019-01-15T02:35:43.678Z,93835.52
2019-01-15T02:38:13.130Z,93834.54
2019-01-15T02:40:42.631Z,93845.17
2019-01-15T02:43:12.122Z,93853.52
2019-01-15T02:45:41.592Z,93842.86
2019-01-15T02:48:11.114Z,93850.27
2019-01-15T02:50:40.616Z,93853.80
2019-01-15T02:53:10.098Z,93857.13
2019-01-15T02:55:39.579Z,93863.87
2019-01-15T02:58:09.094Z,93859.53
2019-01-15T03:00:38.592Z,93864.83
2019-01-15T03:03:08.094Z,93859.80
2019-01-15T03:05:37.612Z,93869.28
2019-01-15T03:08:07.075Z,93874.91
2019-01-15T03:10:36.550Z,93871.85
2019-01-15T03:13:06.127Z,93882.63
2019-01-15T03:15:35.624Z,93882.63
2019-01-15T03:18:05.124Z,93876.67
2019-01-15T03:20:34.580Z,93878.88
2019-01-15T03:23:05.097Z,93880.17
2019-01-15T03:25:34.576Z,93889.83
2019-01-15T03:28:04.074Z,93890.94
2019-01-15T03:30:34.585Z,93896.73
2019-01-15T03:33:04.121Z,93891.92
2019-01-15T03:35:33.579Z,93893.06
2019-01-15T03:38:03.064Z,93886.45
2019-01-15T03:40:34.575Z,93892.70
2019-01-15T03:43:04.337Z,93892.36
2019-01-15T03:45:33.943Z,93888.61
2019-01-15T03:48:03.389Z,93890.67
2019-01-15T03:50:32.873Z,93886.95
2019-01-15T03:53:02.338Z,93863.48
2019-01-15T03:55:31.877Z,93883.71
2019-01-15T03:58:01.391Z,93899.09
2019-01-15T04:00:31.079Z,93894.75
2019-01-15T04:03:00.556Z,93904.23
2019-01-15T04:05:30.107Z,93901.48
2019-01-15T04:08:00.689Z,93906.70
2019-01-15T04:10:30.348Z,93913.94
2019-01-15T04:13:01.063Z,93924.98
2019-01-15T04:15:30.537Z,93928.84
2019-01-15T04:18:00.019Z,93932.30
2019-01-15T04:20:29.493Z,93942.23
2019-01-15T04:22:58.933Z,93942.09
2019-01-15T04:25:28.454Z,93937.91
2019-01-15T04:27:57.962Z,93943.44
2019-01-15T04:30:27.544Z,93940.20
2019-01-15T04:32:57.036Z,93950.61
2019-01-15T04:35:26.534Z,93956.22
2019-01-15T04:37:56.070Z,93960.71
2019-01-15T04:40:25.543Z,93966.23
2019-01-15T04:42:55.014Z,93963.80
2019-01-15T04:45:25.084Z,93964.09
2019-01-15T04:47:54.703Z,93968.59
2019-01-15T04:50:24.179Z,93967.78
2019-01-15T04:52:57.533Z,93976.66
2019-01-15T04:55:27.149Z,93976.80
2019-01-15T04:57:56.677Z,93974.54
2019-01-15T05:00:26.177Z,93977.87
2019-01-15T05:02:58.308Z,93974.70
2019-01-15T05:05:27.816Z,93967.13
2019-01-15T05:07:57.292Z,93968.34
2019-01-15T05:10:26.753Z,93961.11
2019-01-15T05:12:56.241Z,93966.11
2019-01-15T05:15:25.688Z,93963.20
2019-01-15T05:17:55.162Z,93960.87
2019-01-15T05:20:24.671Z,93957.77
2019-01-15T05:22:54.181Z,93950.55
2019-01-15T05:25:23.679Z,93954.45
2019-01-15T05:27:53.261Z,93950.17
2019-01-15T05:30:41.022Z,93954.04
2019-01-15T05:33:10.518Z,93961.94
2019-01-15T05:35:40.022Z,93960.86
2019-01-15T05:38:09.560Z,93969.56
2019-01-15T05:40:39.051Z,93946.08
2019-01-15T05:43:08.517Z,93999.92
2019-01-15T05:45:39.593Z,94016.13
2019-01-15T05:48:12.335Z,94024.73
2019-01-15T05:51:03.763Z,94021.27
2019-01-15T05:53:33.255Z,94024.13
2019-01-15T05:56:02.757Z,94030.20
2019-01-15T05:58:32.263Z,94024.72
2019-01-15T06:01:01.705Z,94042.12
2019-01-15T06:03:31.171Z,94035.27
2019-01-15T06:06:00.667Z,94049.48
2019-01-15T06:08:30.193Z,94046.97
2019-01-15T06:10:59.711Z,94040.09
2019-01-15T06:13:29.181Z,94047.87
2019-01-15T06:15:58.679Z,94051.45
2019-01-15T06:18:28.152Z,94056.53
2019-01-15T06:20:57.633Z,94037.73
2019-01-15T06:23:27.181Z,94045.23
2019-01-15T06:25:56.699Z,94053.53
2019-01-15T06:28:26.907Z,94057.05
2019-01-15T06:30:56.498Z,94056.17
2019-01-15T06:33:26.005Z,94062.32
2019-01-15T06:35:55.527Z,94076.20
2019-01-15T06:38:25.106Z,94082.83
2019-01-15T06:40:54.656Z,94096.48
2019-01-15T06:43:24.145Z,94095.73
2019-01-15T06:45:53.633Z,94100.90
2019-01-15T06:48:23.114Z,94095.10
2019-01-15T06:50:52.600Z,94086.44
2019-01-15T06:53:22.037Z,94084.11
2019-01-15T06:55:51.519Z,94096.65
2019-01-15T06:58:21.039Z,94110.86
2019-01-15T07:00:50.611Z,94107.83
2019-01-15T07:03:20.070Z,94108.00
2019-01-15T07:05:53.867Z,94107.73
2019-01-15T07:08:23.282Z,94122.55
2019-01-15T07:10:53.089Z,94136.20
2019-01-15T07:13:22.935Z,94135.25
2019-01-15T07:15:56.162Z,94131.56
2019-01-15T07:18:25.699Z,94143.53
2019-01-15T07:20:55.230Z,94154.91
2019-01-15T07:23:24.803Z,94153.16
2019-01-15T07:25:54.300Z,94162.28
2019-01-15T07:28:23.837Z,94163.29
2019-01-15T07:30:55.763Z,94157.81
2019-01-15T07:33:27.101Z,94164.99
2019-01-15T07:35:56.583Z,94169.24
2019-01-15T07:38:26.042Z,94170.69
2019-01-15T07:40:55.585Z,94172.14
2019-01-15T07:43:25.036Z,94177.44
2019-01-15T07:45:54.536Z,94165.34
2019-01-15T07:48:24.044Z,94174.87
2019-01-15T07:50:53.570Z,94182.58
2019-01-15T07:53:23.049Z,94167.49
2019-01-15T07:55:52.806Z,94174.84
2019-01-15T07:58:22.472Z,94169.06
2019-01-15T08:00:51.973Z,94173.42
2019-01-15T08:03:21.490Z,94180.11
2019-01-15T08:05:50.983Z,94177.48
2019-01-15T08:08:20.493Z,94191.20
2019-01-15T08:10:56.744Z,94189.42
2019-01-15T08:13:21.238Z,94191.17
2019-01-15T08:15:50.677Z,94210.10
2019-01-15T08:18:20.200Z,94215.84
2019-01-15T08:20:49.744Z,94218.98
2019-01-15T08:23:19.268Z,94231.77
2019-01-15T08:25:48.796Z,94231.63
2019-01-15T08:28:19.233Z,94221.20
2019-01-15T08:30:48.805Z,94249.18
2019-01-15T08:33:18.312Z,94229.75
2019-01-15T08:35:47.789Z,94235.58
2019-01-15T08:38:17.229Z,94237.33
2019-01-15T08:40:46.734Z,94232.08
2019-01-15T08:43:16.173Z,94230.48
2019-01-15T08:45:45.657Z,94244.42
2019-01-15T08:48:23.686Z,94251.66
2019-01-15T08:50:54.199Z,94250.03
2019-01-15T08:53:24.427Z,94250.27
2019-01-15T08:55:57.494Z,94248.41
2019-01-15T08:58:27.069Z,94248.63
2019-01-15T09:00:56.583Z,94245.67
2019-01-15T09:03:26.117Z,94229.13
2019-01-15T09:05:55.605Z,94238.43
2019-01-15T09:08:25.240Z,94235.71
2019-01-15T09:10:54.835Z,94251.81
2019-01-15T09:13:26.128Z,94240.18
2019-01-15T09:15:57.350Z,94229.64
2019-01-15T09:18:26.940Z,94247.63
2019-01-15T09:20:56.472Z,94229.62
2019-01-15T09:23:28.076Z,94227.08
2019-01-15T09:25:57.698Z,94228.14
2019-01-15T09:28:27.726Z,94210.42
2019-01-15T09:30:57.317Z,94219.33
2019-01-15T09:33:27.220Z,94224.89
2019-01-15T09:35:56.805Z,94216.41
2019-01-15T09:38:26.462Z,94203.98
2019-01-15T09:40:56.261Z,94204.74
2019-01-15T09:43:25.956Z,94227.77
2019-01-15T09:45:55.764Z,94209.48
2019-01-15T09:48:34.352Z,94214.22
2019-01-15T09:51:03.894Z,94213.85
2019-01-15T09:53:33.595Z,94199.13
2019-01-15T09:56:03.686Z,94237.46
2019-01-15T09:58:33.476Z,94198.13
2019-01-15T10:01:03.192Z,94188.73
2019-01-15T10:03:32.929Z,94191.67
2019-01-15T10:06:05.355Z,94187.70
2019-01-15T10:08:36.236Z,94194.64
2019-01-15T10:11:05.899Z,94200.20
2019-01-15T10:13:35.484Z,94203.08
2019-01-15T10:16:04.984Z,94192.11
2019-01-15T10:18:34.597Z,94197.98
2019-01-15T10:21:04.166Z,94189.37
2019-01-15T10:23:34.012Z,94204.55
2019-01-15T10:26:03.650Z,94189.23
2019-01-15T10:28:33.319Z,94202.48
2019-01-15T10:31:29.644Z,94195.09
2019-01-15T10:34:07.292Z,94186.18
2019-01-15T10:36:35.205Z,94190.93
2019-01-15T10:39:08.090Z,94184.50
2019-01-15T10:41:37.719Z,94200.41
2019-01-15T10:44:07.269Z,94202.42
2019-01-15T10:46:36.884Z,94239.30
2019-01-15T10:49:06.532Z,94203.43
2019-01-15T10:51:36.102Z,94207.42
2019-01-15T10:54:06.000Z,94165.11
2019-01-15T10:56:35.571Z,94184.22
2019-01-15T10:59:05.135Z,94197.22
2019-01-15T11:01:34.657Z,94201.58
2019-01-15T11:04:04.458Z,94182.85
2019-01-15T11:06:34.301Z,94187.23
2019-01-15T11:09:07.004Z,94179.24
2019-01-15T11:11:41.157Z,94185.05
2019-01-15T11:14:14.832Z,94177.59
2019-01-15T11:16:45.327Z,94189.86
2019-01-15T11:19:20.260Z,94204.23
2019-01-15T11:21:55.784Z,94204.00
2019-01-15T11:24:30.860Z,94197.98
2019-01-15T11:27:04.850Z,94206.41
2019-01-15T11:29:34.279Z,94194.05
2019-01-15T11:32:03.779Z,94221.77
2019-01-15T11:34:33.417Z,94210.53
2019-01-15T11:37:03.079Z,94217.53
2019-01-15T11:39:32.560Z,94199.10
2019-01-15T11:42:02.047Z,94210.37
2019-01-15T11:44:31.559Z,94209.39
2019-01-15T11:47:01.094Z,94205.96
2019-01-15T11:49:30.644Z,94207.25
2019-01-15T11:52:00.170Z,94224.84
2019-01-15T11:54:29.718Z,94218.00
2019-01-15T11:56:59.258Z,94234.91
2019-01-15T11:59:29.258Z,94236.72
2019-01-15T12:02:25.282Z,94245.70
2019-01-15T12:05:09.787Z,94237.19
2019-01-15T12:08:01.367Z,94243.05
2019-01-15T12:10:48.782Z,94250.77
2019-01-15T12:13:37.149Z,94255.95
2019-01-15T12:16:18.862Z,94248.72
2019-01-15T12:19:09.911Z,94241.64
2019-01-15T12:22:01.540Z,94250.00
2019-01-15T12:24:56.221Z,94256.47
2019-01-15T12:27:47.741Z,94290.55
2019-01-15T12:30:34.958Z,94259.20
2019-01-15T12:33:22.245Z,94253.56
2019-01-15T12:36:13.476Z,94252.64
2019-01-15T12:39:01.938Z,94274.09
2019-01-15T12:41:49.663Z,94261.17
2019-01-15T12:44:50.345Z,94267.05
2019-01-15T12:47:37.381Z,94268.03
2019-01-15T12:50:26.443Z,94280.17
2019-01-15T12:53:14.399Z,94284.81
2019-01-15T12:56:04.838Z,94277.41
2019-01-15T12:58:46.901Z,94280.65
2019-01-15T13:01:34.002Z,94280.85
2019-01-15T13:04:16.918Z,94287.55
2019-01-15T13:07:17.499Z,94302.64
2019-01-15T13:10:04.811Z,94304.27
2019-01-15T13:13:11.748Z,94305.21
2019-01-15T13:16:00.236Z,94284.54
2019-01-15T13:18:53.631Z,94300.84
2019-01-15T13:21:36.371Z,94301.48
2019-01-15T13:24:32.241Z,94306.14
2019-01-15T13:27:20.690Z,94307.77
2019-01-15T13:30:09.392Z,94310.24
2019-01-15T13:32:52.073Z,94321.13
2019-01-15T13:35:46.417Z,94315.31
2019-01-15T13:38:44.099Z,94314.33
2019-01-15T13:41:31.218Z,94307.36
2019-01-15T13:44:22.678Z,94329.00
2019-01-15T13:47:03.872Z,94318.55
2019-01-15T13:50:10.627Z,94317.77
2019-01-15T13:52:51.852Z,94328.19
2019-01-15T13:55:39.219Z,94330.11
2019-01-15T13:58:28.361Z,94318.67
2019-01-15T14:01:29.124Z,94319.89
2019-01-15T14:04:26.781Z,94344.23
2019-01-15T14:07:06.420Z,94328.88
2019-01-15T14:09:53.859Z,94326.91
2019-01-15T14:12:42.225Z,94332.55
2019-01-15T14:15:28.269Z,94350.80
2019-01-15T14:18:10.299Z,94342.66
2019-01-15T14:20:58.678Z,94351.62
2019-01-15T14:23:49.932Z,94361.09
2019-01-15T14:26:47.119Z,94363.39
2019-01-15T14:29:35.805Z,94351.88
2019-01-15T14:32:23.679Z,94360.67
2019-01-15T14:35:11.118Z,94358.19
2019-01-15T14:37:59.571Z,94377.79
2019-01-15T14:40:46.620Z,94375.34
2019-01-15T14:43:34.044Z,94362.25
2019-01-15T14:46:21.598Z,94368.80
2019-01-15T14:49:13.517Z,94374.67
2019-01-15T14:52:11.386Z,94372.91
2019-01-15T14:54:59.839Z,94342.30
2019-01-15T14:57:47.270Z,94370.47
2019-01-15T15:00:47.357Z,94372.56
2019-01-15T15:03:35.890Z,94375.68
2019-01-15T15:06:15.200Z,94385.09
2019-01-15T15:08:56.866Z,94391.08
2019-01-15T15:11:44.816Z,94392.70
2019-01-15T15:14:33.348Z,94389.58
2019-01-15T15:17:21.867Z,94399.36
2019-01-15T15:20:16.649Z,94393.41
2019-01-15T15:23:03.763Z,94400.11
2019-01-15T15:25:40.432Z,94395.64
2019-01-15T15:28:28.921Z,94398.39
2019-01-15T15:31:16.101Z,94396.27
2019-01-15T15:34:03.257Z,94392.49
2019-01-15T15:36:50.675Z,94398.31
2019-01-15T15:39:44.476Z,94394.80
2019-01-15T15:42:36.242Z,94410.23
2019-01-15T15:45:24.993Z,94423.65
2019-01-15T15:48:06.358Z,94431.66
2019-01-15T15:50:44.832Z,94443.55
2019-01-15T15:53:45.497Z,94427.34
2019-01-15T15:56:46.311Z,94436.95
2019-01-15T15:59:34.455Z,94443.04
2019-01-15T16:02:38.912Z,94436.86
2019-01-15T16:05:38.187Z,94438.39
2019-01-15T16:08:38.823Z,94449.83
2019-01-15T16:11:26.535Z,94453.89
2019-01-15T16:14:15.215Z,94462.50
2019-01-15T16:17:15.972Z,94464.39
2019-01-15T16:20:04.388Z,94473.66
2019-01-15T16:22:43.321Z,94476.91
2019-01-15T16:25:24.904Z,94482.61
2019-01-15T16:28:12.224Z,94479.83
2019-01-15T16:31:06.695Z,94495.20
2019-01-15T16:33:53.985Z,94496.67
2019-01-15T16:36:51.836Z,94514.14
2019-01-15T16:39:46.285Z,94517.75
2019-01-15T16:42:34.742Z,94521.13
2019-01-15T16:45:18.781Z,94529.17
2019-01-15T16:48:00.315Z,94532.91
2019-01-15T16:51:01.396Z,94537.36
2019-01-15T16:53:48.467Z,94534.19
2019-01-15T16:56:34.755Z,94549.14
2019-01-15T16:59:22.493Z,94555.31
2019-01-15T17:02:17.208Z,94551.39
2019-01-15T17:05:20.824Z,94560.82
2019-01-15T17:08:08.105Z,94567.58
2019-01-15T17:10:59.498Z,94577.88
2019-01-15T17:13:53.922Z,94587.93
2019-01-15T17:16:34.844Z,94599.61
2019-01-15T17:19:26.776Z,94604.59
2019-01-15T17:22:18.267Z,94613.30
2019-01-15T17:25:05.656Z,94613.33
2019-01-15T17:27:57.943Z,94617.53
2019-01-15T17:30:52.223Z,94622.63
2019-01-15T17:33:46.784Z,94631.12
2019-01-15T17:36:42.191Z,94631.12
2019-01-15T17:39:35.007Z,94620.44
2019-01-15T17:42:26.117Z,94627.11
2019-01-15T17:45:14.338Z,94632.93
2019-01-15T17:48:06.146Z,94634.03
2019-01-15T17:51:01.369Z,94648.23
2019-01-15T17:53:55.982Z,94641.72
2019-01-15T17:56:42.470Z,94648.23
2019-01-15T17:59:36.972Z,94651.61
2019-01-15T18:02:24.650Z,94654.84
2019-01-15T18:05:17.798Z,94663.23
2019-01-15T18:08:24.542Z,94667.66
2019-01-15T18:11:15.859Z,94668.01
2019-01-15T18:14:06.817Z,94676.53
2019-01-15T18:16:49.652Z,94666.97
2019-01-15T18:19:40.935Z,94679.31
2019-01-15T18:22:19.499Z,94689.80
2019-01-15T18:25:13.836Z,94683.18
2019-01-15T18:28:11.660Z,94683.64
2019-01-15T18:31:03.106Z,94692.37
2019-01-15T18:33:50.187Z,94683.16
2019-01-15T18:36:33.954Z,94689.36
2019-01-15T18:39:28.658Z,94684.34
2019-01-15T18:42:19.866Z,94678.63
2019-01-15T18:45:04.608Z,94682.49
2019-01-15T18:47:51.725Z,94670.61
2019-01-15T18:50:40.133Z,94684.69
2019-01-15T18:53:20.977Z,94685.39
2019-01-15T18:56:18.603Z,94685.98
2019-01-15T18:59:00.007Z,94683.52
2019-01-15T19:01:47.364Z,94682.47
2019-01-15T19:04:38.543Z,94687.95
2019-01-15T19:07:42.452Z,94686.53
2019-01-15T19:10:38.052Z,94690.61
2019-01-15T19:13:25.323Z,94698.30
2019-01-15T19:16:19.862Z,94713.33
2019-01-15T19:19:20.303Z,94714.13
2019-01-15T19:22:11.658Z,94723.22
2019-01-15T19:25:13.257Z,94721.00
2019-01-15T19:28:04.680Z,94728.56
2019-01-15T19:31:08.530Z,94730.90
2019-01-15T19:34:03.084Z,94729.27
2019-01-15T19:36:54.734Z,94733.34
2019-01-15T19:39:46.231Z,94737.18
2019-01-15T19:42:37.721Z,94746.95
2019-01-15T19:45:41.774Z,94744.03
2019-01-15T19:48:30.262Z,94745.30
2019-01-15T19:51:27.651Z,94752.88
2019-01-15T19:54:39.124Z,94751.60
2019-01-15T19:57:28.298Z,94745.55
2019-01-15T20:00:16.100Z,94750.20
2019-01-15T20:03:03.409Z,94744.38
2019-01-15T20:05:51.918Z,94743.68
2019-01-15T20:08:49.521Z,94742.05
2019-01-15T20:11:30.726Z,94753.93
2019-01-15T20:14:28.533Z,94743.47
2019-01-15T20:17:18.468Z,94753.95
2019-01-15T20:20:24.288Z,94761.75
2019-01-15T20:23:15.221Z,94754.06
2019-01-15T20:26:15.692Z,94755.82
2019-01-15T20:29:02.872Z,94749.06
2019-01-15T20:31:45.135Z,94746.96
2019-01-15T20:34:33.573Z,94749.06
2019-01-15T20:37:17.773Z,94759.06
2019-01-15T20:40:04.870Z,94757.90
2019-01-15T20:42:52.250Z,94763.47
2019-01-15T20:45:39.575Z,94754.84
2019-01-15T20:48:37.051Z,94751.47
2019-01-15T20:51:44.029Z,94752.49
2019-01-15T20:54:35.566Z,94749.14
2019-01-15T20:57:20.090Z,94752.08
2019-01-15T21:00:07.767Z,94761.73
2019-01-15T21:02:57.145Z,94758.55
2019-01-15T21:05:36.047Z,94756.00
2019-01-15T21:08:30.706Z,94758.09
2019-01-15T21:11:25.217Z,94747.72
2019-01-15T21:14:12.509Z,94757.52
2019-01-15T21:17:10.232Z,94766.93
2019-01-15T21:19:55.580Z,94758.53
2019-01-15T21:22:51.445Z,94764.22
2019-01-15T21:25:43.323Z,94768.66
2019-01-15T21:28:31.269Z,94768.89
2019-01-15T21:31:15.943Z,94774.60
2019-01-15T21:34:07.591Z,94779.16
2019-01-15T21:36:55.070Z,94791.61
2019-01-15T21:39:50.186Z,94798.13
2019-01-15T21:42:33.347Z,94807.47
2019-01-15T21:45:20.675Z,94805.11
2019-01-15T21:48:07.057Z,94809.66
2019-01-15T21:50:58.325Z,94806.39
2019-01-15T21:53:49.520Z,94805.45
2019-01-15T21:56:35.389Z,94812.81
2019-01-15T21:59:26.728Z,94815.49
2019-01-15T22:02:13.955Z,94806.95
2019-01-15T22:05:07.887Z,94802.86
2019-01-15T22:07:56.319Z,94798.78
2019-01-15T22:10:47.703Z,94788.52
2019-01-15T22:13:34.812Z,94783.03
2019-01-15T22:16:29.266Z,94780.19
2019-01-15T22:19:14.540Z,94784.16
2019-01-15T22:22:21.199Z,94785.88
2019-01-15T22:25:09.582Z,94796.73
2019-01-15T22:28:04.007Z,94791.83
2019-01-15T22:30:58.351Z,94792.56
2019-01-15T22:33:46.767Z,94786.38
2019-01-15T22:36:36.115Z,94779.84
2019-01-15T22:39:34.825Z,94786.03
2019-01-15T22:42:41.675Z,94793.27
2019-01-15T22:45:28.976Z,94782.45
2019-01-15T22:48:29.634Z,94779.72
2019-01-15T22:51:18.046Z,94773.77
2019-01-15T22:53:58.671Z,94773.19
2019-01-15T22:56:45.252Z,94771.98
2019-01-15T22:59:36.711Z,94775.95
2019-01-15T23:02:25.135Z,94758.67
2019-01-15T23:05:28.834Z,94772.45
2019-01-15T23:08:15.641Z,94778.98
2019-01-15T23:11:04.020Z,94778.48
2019-01-15T23:13:58.443Z,94788.52
2019-01-15T23:16:42.074Z,94783.14
2019-01-15T23:19:35.615Z,94791.81
2019-01-15T23:22:23.336Z,94786.55
2019-01-15T23:25:14.719Z,94773.83
2019-01-15T23:28:02.008Z,94767.06
2019-01-15T23:30:56.430Z,94780.36
2019-01-15T23:33:43.440Z,94779.16
2019-01-15T23:36:37.970Z,94781.20
2019-01-15T23:39:25.074Z,94774.42
2019-01-15T23:42:13.652Z,94776.00
2019-01-15T23:45:04.800Z,94788.22
2019-01-15T23:47:56.353Z,94788.27
2019-01-15T23:50:47.794Z,94794.33
2019-01-15T23:53:31.757Z,94793.34
2019-01-15T23:56:38.691Z,94797.54
2019-01-15T23:59:25.569Z,94808.34
